Time;durP1;ratioP1;P1;durP2;ratioP2;P2;SDS_P1;SDS_P2;PMS_P1;PMS_P2;Temp;Humidity;BMP_temperature;BMP_pressure;BME280_temperature;BME280_humidity;BME280_pressure;Samples;Min_cycle;Max_cycle;Signal;HPM_P1;HPM_P2
2023/10/05 00:01:04;;;;;;;9.00;8.80;;;;;;;-141.02;100.00;38400.41;5074981;28;20199;-65
2023/10/05 00:03:32;;;;;;;8.60;8.40;;;;;;;-141.02;100.00;38377.41;5075430;28;20230;-66
2023/10/05 00:06:13;;;;;;;8.90;8.70;;;;;;;-141.02;100.00;38352.47;5075228;28;20367;-64
2023/10/05 00:08:43;;;;;;;8.90;8.70;;;;;;;-141.02;100.00;38354.41;5075350;28;20535;-65
2023/10/05 00:11:22;;;;;;;9.10;8.90;;;;;;;-141.02;100.00;38348.63;5075139;28;20205;-66
2023/10/05 00:13:52;;;;;;;8.57;8.38;;;;;;;-141.02;100.00;38321.81;5074824;28;20243;-65
2023/10/05 00:16:21;;;;;;;8.82;8.63;;;;;;;-141.02;100.00;38350.56;5074606;28;20780;-64
2023/10/05 00:18:50;;;;;;;8.70;8.50;;;;;;;-141.02;100.00;38342.88;5074796;28;20198;-62
2023/10/05 00:21:21;;;;;;;8.80;8.60;;;;;;;-141.02;100.00;38348.63;5074705;28;20244;-64
2023/10/05 00:23:53;;;;;;;8.70;8.50;;;;;;;-141.02;100.00;38285.38;5074936;28;20226;-64
2023/10/05 00:26:23;;;;;;;8.63;8.43;;;;;;;-141.02;100.00;38296.88;5074607;28;20266;-65
2023/10/05 00:29:04;;;;;;;8.43;8.23;;;;;;;-141.02;100.00;38262.38;5074904;28;20190;-65
2023/10/05 00:31:33;;;;;;;8.45;8.25;;;;;;;-141.02;100.00;38287.28;5074515;28;20193;-65
2023/10/05 00:34:02;;;;;;;8.35;8.15;;;;;;;-141.02;100.00;38273.88;5074460;28;20198;-65
2023/10/05 00:36:34;;;;;;;8.27;8.07;;;;;;;-141.02;100.00;38241.28;5074026;28;20242;-65
2023/10/05 00:39:07;;;;;;;8.20;8.00;;;;;;;-141.02;100.00;38270.03;5073417;28;20194;-65
2023/10/05 00:41:36;;;;;;;8.70;8.50;;;;;;;-141.02;100.00;38220.19;5074329;28;20621;-65
2023/10/05 00:44:06;;;;;;;9.10;8.90;;;;;;;-141.02;100.00;38258.53;5074558;28;20198;-64
2023/10/05 00:46:34;;;;;;;9.00;8.80;;;;;;;-141.02;100.00;38258.53;5074577;28;20217;-64
2023/10/05 00:49:13;;;;;;;8.75;8.55;;;;;;;-141.02;100.00;38273.88;5074444;28;20190;-65
2023/10/05 00:51:42;;;;;;;9.02;8.82;;;;;;;-141.02;100.00;38262.38;5074172;28;20194;-64
2023/10/05 00:54:11;;;;;;;8.95;8.75;;;;;;;-141.02;100.00;38258.53;5074069;28;20237;-65
2023/10/05 00:56:41;;;;;;;9.32;9.02;;;;;;;-141.02;100.00;38260.44;5073994;28;20283;-65
2023/10/05 00:59:15;;;;;;;9.30;9.00;;;;;;;-141.02;100.00;38308.38;5073922;28;20198;-64
2023/10/05 01:02:03;;;;;;;9.10;8.90;;;;;;;-141.02;100.00;38296.88;5074231;28;20185;-65
2023/10/05 01:04:52;;;;;;;9.32;9.10;;;;;;;-141.02;100.00;38300.72;5073941;28;20566;-66
2023/10/05 01:07:43;;;;;;;9.10;8.90;;;;;;;-141.02;100.00;38126.25;5073831;28;20546;-64
2023/10/05 01:10:29;;;;;;;8.00;7.80;;;;;;;-141.02;100.00;38201.03;5074026;28;20599;-58
2023/10/05 01:12:58;;;;;;;7.55;7.35;;;;;;;-141.02;100.00;38116.66;5073728;28;20694;-57
2023/10/05 01:15:32;;;;;;;6.95;6.75;;;;;;;-141.02;100.00;38086.00;5073488;28;20209;-62
2023/10/05 01:18:00;;;;;;;6.82;6.63;;;;;;;-141.02;100.00;38063.00;5073704;28;20190;-62
2023/10/05 01:20:29;;;;;;;7.10;6.90;;;;;;;-141.02;100.00;38078.31;5073505;28;20252;-62
2023/10/05 01:23:04;;;;;;;7.30;7.10;;;;;;;-141.02;100.00;38095.59;5073604;28;20194;-62
2023/10/05 01:25:31;;;;;;;7.38;7.18;;;;;;;-141.02;100.00;38093.66;5073432;28;20190;-59
2023/10/05 01:27:59;;;;;;;7.70;7.50;;;;;;;-141.02;100.00;38093.66;5073734;28;20293;-65
2023/10/05 01:30:28;;;;;;;7.70;7.50;;;;;;;-141.02;100.00;38082.16;5073334;28;20225;-60
2023/10/05 01:32:55;;;;;;;8.20;8.00;;;;;;;-141.02;100.00;38078.31;5073298;28;20237;-65
2023/10/05 01:35:23;;;;;;;8.70;8.50;;;;;;;-141.02;100.00;38124.34;5073515;28;20201;-63
2023/10/05 01:37:53;;;;;;;8.52;8.32;;;;;;;-141.02;100.00;38105.16;5072791;28;20226;-65
2023/10/05 01:40:25;;;;;;;8.02;7.82;;;;;;;-141.02;100.00;38101.34;5073116;28;20627;-64
2023/10/05 01:42:53;;;;;;;8.05;7.85;;;;;;;-141.02;100.00;38124.34;5073167;28;20194;-64
2023/10/05 01:45:24;;;;;;;7.85;7.65;;;;;;;-141.02;100.00;38082.16;5073015;28;20640;-64
2023/10/05 01:47:52;;;;;;;8.00;7.80;;;;;;;-141.02;100.00;38093.66;5073059;28;20720;-65
2023/10/05 01:50:22;;;;;;;7.90;7.70;;;;;;;-141.02;100.00;38097.50;5072858;28;20649;-63
2023/10/05 01:52:55;;;;;;;8.10;7.90;;;;;;;-141.02;100.00;38095.59;5072799;28;20575;-64
2023/10/05 01:55:27;;;;;;;7.93;7.72;;;;;;;-141.02;100.00;38074.50;5073191;28;20277;-65
2023/10/05 01:57:55;;;;;;;7.90;7.70;;;;;;;-141.02;100.00;38064.91;5073117;28;20627;-64
2023/10/05 02:01:10;;;;;;;7.80;7.60;;;;;;;-141.02;100.00;38107.09;5072804;28;20755;-65
2023/10/05 02:03:39;;;;;;;7.75;7.55;;;;;;;-141.02;100.00;38093.66;5072580;28;20206;-65
2023/10/05 02:06:11;;;;;;;8.68;8.48;;;;;;;-141.02;100.00;38089.84;5072952;28;20275;-65
2023/10/05 02:08:41;;;;;;;8.27;8.07;;;;;;;-141.02;100.00;38112.84;5072998;28;20213;-64
2023/10/05 02:11:18;;;;;;;8.57;8.38;;;;;;;-141.02;100.00;38101.34;5072853;28;20205;-65
2023/10/05 02:20:40;;;;;;;7.93;7.72;;;;;;;-141.02;100.00;38105.16;5072759;28;20651;-64
2023/10/05 02:27:19;;;;;;;8.20;8.00;;;;;;;-141.02;100.00;38097.50;5072312;28;20565;-60
2023/10/05 02:33:43;;;;;;;8.60;8.40;;;;;;;-141.02;100.00;38107.09;5072366;28;20212;-64
2023/10/05 02:36:36;;;;;;;8.45;8.25;;;;;;;-141.02;100.00;38078.31;5071160;28;20717;-62
2023/10/05 02:42:25;;;;;;;8.98;8.77;;;;;;;-141.02;100.00;38107.09;5072187;28;20173;-61
2023/10/05 02:44:54;;;;;;;9.30;9.02;;;;;;;-141.02;100.00;38124.34;5071967;28;20256;-62
2023/10/05 02:47:23;;;;;;;9.88;9.57;;;;;;;-141.02;100.00;38139.69;5072091;28;20241;-60
2023/10/05 02:56:35;;;;;;;8.70;8.50;;;;;;;-141.02;100.00;38124.34;5071979;28;20233;-60
2023/10/05 02:59:07;;;;;;;8.88;8.68;;;;;;;-141.02;100.00;38174.19;5071858;28;20198;-60
2023/10/05 03:01:37;;;;;;;8.90;8.70;;;;;;;-141.02;100.00;38139.69;5071691;28;20191;-61
2023/10/05 03:07:32;;;;;;;8.70;8.50;;;;;;;-141.02;100.00;38141.59;5071905;28;20196;-60
2023/10/05 03:10:01;;;;;;;8.70;8.50;;;;;;;-141.02;100.00;38151.19;5071911;28;20237;-64
2023/10/05 03:13:07;;;;;;;8.95;8.75;;;;;;;-141.02;100.00;38109.00;5071810;28;20281;-62
2023/10/05 03:15:54;;;;;;;8.60;8.40;;;;;;;-141.02;100.00;38132.00;5071701;28;20656;-63
2023/10/05 03:18:25;;;;;;;8.40;8.20;;;;;;;-141.02;100.00;38143.50;5071760;28;20194;-63
2023/10/05 03:20:58;;;;;;;7.50;7.30;;;;;;;-141.02;100.00;38133.91;5072126;28;20290;-63
2023/10/05 03:26:51;;;;;;;8.02;7.82;;;;;;;-141.02;100.00;38135.84;5071821;28;20209;-59
2023/10/05 03:29:21;;;;;;;7.80;7.60;;;;;;;-141.02;100.00;38128.16;5071694;28;20197;-61
2023/10/05 03:31:53;;;;;;;8.45;8.25;;;;;;;-141.02;100.00;38143.50;5071905;28;20191;-63
2023/10/05 03:34:25;;;;;;;8.90;8.70;;;;;;;-141.02;100.00;38170.34;5072053;28;20218;-64
2023/10/05 03:36:55;;;;;;;9.40;9.10;;;;;;;-141.02;100.00;38201.03;5071442;28;20221;-61
2023/10/05 03:39:23;;;;;;;9.82;9.52;;;;;;;-141.02;100.00;38191.44;5071923;28;20193;-63
2023/10/05 03:41:50;;;;;;;9.90;9.60;;;;;;;-141.02;100.00;38201.03;5071862;28;20264;-63
2023/10/05 03:44:17;;;;;;;10.00;9.70;;;;;;;-141.02;100.00;38185.69;5071571;28;20202;-59
2023/10/05 03:46:46;;;;;;;9.55;9.25;;;;;;;-141.02;100.00;38195.28;5071769;28;20257;-62
2023/10/05 03:49:15;;;;;;;9.10;8.90;;;;;;;-141.02;100.00;38224.03;5071813;28;20263;-60
2023/10/05 03:51:49;;;;;;;9.40;9.10;;;;;;;-141.02;100.00;38204.84;5071421;28;20797;-64
2023/10/05 03:54:18;;;;;;;9.05;8.85;;;;;;;-141.02;100.00;38195.28;5071797;28;20581;-63
2023/10/05 03:56:45;;;;;;;9.15;8.95;;;;;;;-141.02;100.00;38227.84;5071282;28;20232;-62
2023/10/05 03:59:12;;;;;;;9.43;9.13;;;;;;;-141.02;100.00;38235.53;5071699;28;20244;-64
2023/10/05 04:01:39;;;;;;;10.15;9.85;;;;;;;-141.02;100.00;38235.53;5071293;28;20190;-62
2023/10/05 04:04:08;;;;;;;9.80;9.50;;;;;;;-141.02;100.00;38227.84;5071489;28;20194;-61
2023/10/05 04:06:36;;;;;;;10.00;9.70;;;;;;;-141.02;100.00;38239.38;5071272;28;20577;-59
2023/10/05 04:09:05;;;;;;;10.00;9.70;;;;;;;-141.02;100.00;38237.44;5071586;28;20201;-62
2023/10/05 04:11:34;;;;;;;9.85;9.55;;;;;;;-141.02;100.00;38293.03;5071297;28;20195;-62
2023/10/05 04:14:03;;;;;;;10.20;9.90;;;;;;;-141.02;100.00;38314.13;5072173;28;20195;-65
2023/10/05 04:16:33;;;;;;;9.60;9.30;;;;;;;-141.02;100.00;38302.63;5074733;28;20226;-63
2023/10/05 04:19:04;;;;;;;10.00;9.70;;;;;;;-141.02;100.00;38396.56;5074749;28;20194;-63
2023/10/05 04:21:32;;;;;;;9.63;9.32;;;;;;;-141.02;100.00;38461.75;5074723;28;20193;-63
2023/10/05 04:24:00;;;;;;;9.90;9.60;;;;;;;-141.02;100.00;38576.78;5074653;28;20635;-62
2023/10/05 04:26:32;;;;;;;10.02;9.73;;;;;;;-141.02;100.00;38632.41;5074786;28;20201;-61
2023/10/05 04:29:04;;;;;;;10.10;9.80;;;;;;;-141.02;100.00;38701.41;5074621;28;20222;-60
2023/10/05 04:31:32;;;;;;;10.15;9.85;;;;;;;-141.02;100.00;38718.69;5074776;28;20190;-59
2023/10/05 04:34:00;;;;;;;10.00;9.70;;;;;;;-141.02;100.00;38753.19;5074502;28;20218;-65
2023/10/05 04:36:27;;;;;;;9.70;9.40;;;;;;;-141.02;100.00;38874.00;5074340;28;20272;-65
2023/10/05 04:38:56;;;;;;;9.77;9.48;;;;;;;-141.02;100.00;38929.59;5074192;28;20712;-65
2023/10/05 04:41:28;;;;;;;10.00;9.70;;;;;;;-141.02;100.00;39033.16;5074306;28;20221;-64
2023/10/05 04:43:56;;;;;;;9.98;9.68;;;;;;;-141.02;100.00;39071.50;5074678;28;20249;-63
2023/10/05 04:46:23;;;;;;;10.07;9.77;;;;;;;-141.02;100.00;39106.00;5074620;28;20199;-64
2023/10/05 04:49:02;;;;;;;10.20;9.90;;;;;;;-141.02;100.00;39132.88;5074145;28;20229;-65
2023/10/05 04:51:31;;;;;;;10.00;9.70;;;;;;;-141.02;100.00;39123.28;5074510;28;20268;-62
2023/10/05 04:53:59;;;;;;;10.25;9.95;;;;;;;-141.02;100.00;39178.88;5074387;28;20276;-65
2023/10/05 04:56:40;;;;;;;10.30;10.00;;;;;;;-141.02;100.00;39236.41;5073984;28;20195;-64
2023/10/05 04:59:24;;;;;;;10.25;9.95;;;;;;;-141.02;100.00;39361.06;5073971;28;20567;-63
2023/10/05 05:02:00;;;;;;;10.60;10.30;;;;;;;-141.02;100.00;39455.03;5073979;28;20240;-64
2023/10/05 05:04:41;;;;;;;11.10;10.80;;;;;;;-141.02;100.00;39516.41;5074234;28;20193;-64
2023/10/05 05:07:09;;;;;;;10.80;10.50;;;;;;;-141.02;100.00;39416.69;5074121;28;20190;-64
2023/10/05 05:09:41;;;;;;;10.98;10.68;;;;;;;-141.02;100.00;39366.81;5073806;28;20194;-64
2023/10/05 05:12:16;;;;;;;11.75;11.35;;;;;;;-141.02;100.00;39384.09;5074051;28;20319;-64
2023/10/05 05:14:44;;;;;;;11.20;10.90;;;;;;;-141.02;100.00;39309.28;5073777;28;20194;-65
2023/10/05 05:17:14;;;;;;;11.70;11.30;;;;;;;-141.02;100.00;39370.66;5073870;28;20222;-61
2023/10/05 05:19:41;;;;;;;11.50;11.10;;;;;;;-141.02;100.00;39447.38;5073968;28;20198;-64
2023/10/05 05:22:09;;;;;;;11.30;11.00;;;;;;;-141.02;100.00;39560.53;5073806;28;20226;-65
2023/10/05 05:24:38;;;;;;;11.13;10.82;;;;;;;-141.02;100.00;39616.13;5073427;28;20194;-64
2023/10/05 05:27:11;;;;;;;11.25;10.95;;;;;;;-141.02;100.00;39677.50;5073505;28;20226;-65
2023/10/05 05:29:39;;;;;;;11.35;11.05;;;;;;;-141.02;100.00;39320.78;5074449;28;20213;-59
2023/10/05 05:32:09;;;;;;;11.38;11.07;;;;;;;-141.02;100.00;39650.66;5073671;28;20204;-57
2023/10/05 05:34:37;;;;;;;11.30;11.00;;;;;;;-141.02;100.00;39689.03;5073277;28;20202;-64
2023/10/05 05:37:05;;;;;;;11.70;11.30;;;;;;;-141.02;100.00;39731.22;5072992;28;20234;-61
2023/10/05 05:39:38;;;;;;;12.20;11.80;;;;;;;-141.02;100.00;39754.22;5073230;28;20187;-63
2023/10/05 05:42:12;;;;;;;12.43;12.02;;;;;;;-141.02;100.00;39715.88;5073155;28;20200;-63
2023/10/05 05:44:40;;;;;;;12.88;12.48;;;;;;;-141.02;100.00;39815.59;5073371;28;20198;-63
2023/10/05 05:47:09;;;;;;;12.95;12.55;;;;;;;-141.02;100.00;39750.41;5073411;28;20195;-60
2023/10/05 05:49:38;;;;;;;12.77;12.38;;;;;;;-141.02;100.00;39746.56;5072982;28;20202;-63
2023/10/05 05:52:05;;;;;;;12.98;12.57;;;;;;;-141.02;100.00;39719.72;5073159;28;20194;-60
2023/10/05 05:54:33;;;;;;;12.80;12.40;;;;;;;-141.02;100.00;39788.75;5073283;28;20194;-62
2023/10/05 05:57:00;;;;;;;13.23;12.82;;;;;;;-141.02;100.00;39744.66;5072697;28;20222;-62
2023/10/05 05:59:28;;;;;;;12.90;12.50;;;;;;;-141.02;100.00;39750.41;5073153;28;20225;-60
2023/10/05 06:01:57;;;;;;;13.20;12.80;;;;;;;-141.02;100.00;39754.22;5073058;28;20198;-60
2023/10/05 06:04:25;;;;;;;13.85;13.35;;;;;;;-141.02;100.00;39754.22;5073047;28;20273;-62
2023/10/05 06:06:52;;;;;;;14.13;13.63;;;;;;;-141.02;100.00;39804.09;5073035;28;20201;-61
2023/10/05 06:09:22;;;;;;;14.27;13.77;;;;;;;-141.02;100.00;39830.94;5072607;28;20233;-60
2023/10/05 06:11:50;;;;;;;14.27;13.77;;;;;;;-141.02;100.00;39844.38;5072855;28;20197;-59
2023/10/05 06:14:18;;;;;;;14.10;13.60;;;;;;;-141.02;100.00;39857.81;5072445;28;20202;-61
2023/10/05 06:16:48;;;;;;;13.63;13.13;;;;;;;-141.02;100.00;39865.47;5072757;28;20221;-63
2023/10/05 06:19:15;;;;;;;13.70;13.20;;;;;;;-141.02;100.00;39896.16;5072735;28;20260;-63
2023/10/05 06:21:42;;;;;;;13.10;12.70;;;;;;;-141.02;100.00;39865.47;5072722;28;20276;-59
2023/10/05 06:24:10;;;;;;;12.98;12.57;;;;;;;-141.02;100.00;39850.13;5072697;28;20256;-60
2023/10/05 06:26:38;;;;;;;13.40;12.95;;;;;;;-141.02;100.00;39850.13;5072227;28;20194;-61
2023/10/05 06:29:08;;;;;;;13.32;12.88;;;;;;;-141.02;100.00;39842.47;5072630;28;20206;-61
2023/10/05 06:31:35;;;;;;;12.95;12.55;;;;;;;-141.02;100.00;39884.66;5072284;28;20277;-60
2023/10/05 06:34:08;;;;;;;14.00;13.50;;;;;;;-141.02;100.00;39666.00;5072237;28;20684;-60
2023/10/05 06:36:35;;;;;;;13.27;12.88;;;;;;;-141.02;100.00;39892.34;5071469;28;20284;-63
2023/10/05 06:39:04;;;;;;;13.88;13.38;;;;;;;-141.02;100.00;39877.00;5072450;28;20318;-59
2023/10/05 06:41:31;;;;;;;13.90;13.40;;;;;;;-141.02;100.00;39903.84;5072327;28;20201;-63
2023/10/05 06:43:58;;;;;;;14.40;13.90;;;;;;;-141.02;100.00;39911.50;5072048;28;20194;-61
2023/10/05 06:46:27;;;;;;;14.07;13.57;;;;;;;-141.02;100.00;39892.34;5072454;28;20203;-60
2023/10/05 06:48:55;;;;;;;14.25;13.75;;;;;;;-141.02;100.00;39930.69;5072345;28;20194;-60
2023/10/05 06:51:27;;;;;;;14.00;13.50;;;;;;;-141.02;100.00;39930.69;5072104;28;20676;-64
2023/10/05 06:53:54;;;;;;;14.15;13.65;;;;;;;-141.02;100.00;39923.03;5071961;28;20194;-59
2023/10/05 06:56:21;;;;;;;14.30;13.80;;;;;;;-141.02;100.00;39946.03;5071970;28;20201;-62
2023/10/05 06:58:50;;;;;;;14.73;14.13;;;;;;;-141.02;100.00;39957.53;5072154;28;20328;-63
2023/10/05 07:01:20;;;;;;;14.63;14.02;;;;;;;-141.02;100.00;39953.72;5072204;28;20198;-61
2023/10/05 07:03:52;;;;;;;14.70;14.10;;;;;;;-141.02;100.00;39974.81;5072141;28;20195;-60
2023/10/05 07:06:24;;;;;;;14.88;14.27;;;;;;;-141.02;100.00;40005.50;5072201;28;20186;-60
2023/10/05 07:08:53;;;;;;;15.23;14.63;;;;;;;-141.02;100.00;40041.94;5071952;28;20186;-61
2023/10/05 07:11:20;;;;;;;15.45;14.75;;;;;;;-141.02;100.00;40018.94;5072046;28;20226;-62
2023/10/05 07:13:49;;;;;;;15.73;15.02;;;;;;;-141.02;100.00;40034.28;5072090;28;20668;-60
2023/10/05 07:16:17;;;;;;;15.50;14.80;;;;;;;-141.02;100.00;40045.78;5071653;28;20240;-62
2023/10/05 07:18:44;;;;;;;16.00;15.30;;;;;;;-141.02;100.00;40130.19;5071728;28;20258;-64
2023/10/05 07:21:11;;;;;;;16.25;15.55;;;;;;;-141.02;100.00;40111.00;5071643;28;20198;-60
2023/10/05 07:23:39;;;;;;;16.63;15.82;;;;;;;-141.02;100.00;40212.66;5071943;28;20737;-62
2023/10/05 07:26:08;;;;;;;17.05;16.25;;;;;;;-141.02;99.25;40293.22;5071678;28;20205;-58
2023/10/05 07:28:36;;;;;;;17.48;16.67;;;;;;;-141.02;98.54;40214.59;5071873;28;20660;-61
2023/10/05 07:31:04;;;;;;;17.15;16.30;;;;;;;-141.02;95.00;40456.28;5071947;28;20208;-60
2023/10/05 07:33:31;;;;;;;16.90;16.10;;;;;;;-141.02;94.03;40546.47;5071731;28;20201;-58
2023/10/05 07:35:59;;;;;;;17.67;16.88;;;;;;;-141.02;91.94;40596.34;5071579;28;20229;-63
2023/10/05 07:38:27;;;;;;;17.65;16.75;;;;;;;-141.02;88.57;40659.66;5071325;28;20242;-64
2023/10/05 07:40:54;;;;;;;17.30;16.50;;;;;;;-141.02;88.21;40663.47;5071811;28;20194;-65
2023/10/05 07:43:23;;;;;;;17.08;16.27;;;;;;;-141.02;87.13;40744.06;5071828;28;20281;-61
2023/10/05 07:45:50;;;;;;;17.80;16.90;;;;;;;-141.02;86.66;40797.78;5071417;28;20600;-61
2023/10/05 07:48:18;;;;;;;18.30;17.40;;;;;;;-141.02;85.29;40828.47;5072854;28;20202;-63
2023/10/05 07:50:45;;;;;;;17.35;16.55;;;;;;;-141.02;84.43;40855.34;5075233;28;20194;-59
2023/10/05 07:53:12;;;;;;;17.20;16.40;;;;;;;-141.02;82.58;40874.53;5075230;28;20198;-62
2023/10/05 07:55:39;;;;;;;17.60;16.73;;;;;;;-141.02;82.91;40928.25;5075496;28;20206;-62
2023/10/05 07:58:06;;;;;;;17.60;16.70;;;;;;;-141.02;82.61;40951.28;5075006;28;20287;-65
2023/10/05 08:00:35;;;;;;;17.45;16.65;;;;;;;-141.02;81.85;40978.13;5075300;28;20191;-61
2023/10/05 08:03:05;;;;;;;17.15;16.35;;;;;;;-141.02;79.40;41016.50;5074946;28;20194;-64
2023/10/05 08:05:32;;;;;;;17.15;16.35;;;;;;;-141.02;80.54;41043.38;5075006;28;20198;-65
2023/10/05 08:07:59;;;;;;;17.25;16.45;;;;;;;-141.02;79.00;41047.22;5075120;28;20277;-64
2023/10/05 08:10:28;;;;;;;17.13;16.33;;;;;;;-141.02;79.47;41079.81;5074882;28;20199;-65
2023/10/05 08:12:55;;;;;;;17.17;16.38;;;;;;;-141.02;78.51;41110.53;5074792;28;20198;-63
2023/10/05 08:15:23;;;;;;;17.15;16.35;;;;;;;-141.02;79.29;41112.44;5074768;28;20197;-64
2023/10/05 08:17:51;;;;;;;17.13;16.33;;;;;;;-141.02;77.82;41143.16;5074648;28;20280;-66
2023/10/05 08:20:20;;;;;;;17.17;16.38;;;;;;;-141.02;76.18;41173.84;5074862;28;20229;-64
2023/10/05 08:22:47;;;;;;;17.73;16.83;;;;;;;-141.02;75.00;41231.41;5074954;28;20297;-64
2023/10/05 08:25:16;;;;;;;17.75;16.95;;;;;;;-141.02;73.97;41239.09;5074833;28;20206;-64
2023/10/05 08:27:43;;;;;;;17.50;16.70;;;;;;;-141.02;73.82;41296.66;5074501;28;20200;-66
2023/10/05 08:30:12;;;;;;;17.17;16.27;;;;;;;-141.02;73.89;41300.50;5074569;28;20198;-63
2023/10/05 08:32:39;;;;;;;17.02;16.23;;;;;;;-141.02;72.97;41358.06;5075357;28;20206;-64
2023/10/05 08:35:14;;;;;;;17.40;16.50;;;;;;;-141.02;74.78;41350.38;5074648;28;20198;-61
2023/10/05 08:37:47;;;;;;;16.77;15.98;;;;;;;-141.02;76.88;41331.19;5073891;28;20248;-65
2023/10/05 08:43:08;;;;;;;16.63;15.93;;;;;;;-141.02;74.31;41421.38;5071742;28;20362;-65
2023/10/05 08:45:46;;;;;;;18.30;17.40;;;;;;;-141.02;73.17;41434.81;5074608;28;20645;-66
2023/10/05 08:48:19;;;;;;;16.88;16.08;;;;;;;-141.02;71.52;41515.41;5074449;28;20194;-65
2023/10/05 08:50:55;;;;;;;18.20;17.30;;;;;;;-141.02;69.94;41551.88;5074429;28;20259;-65
2023/10/05 08:53:22;;;;;;;16.73;16.02;;;;;;;-141.02;69.68;41553.78;5074028;28;20182;-63
2023/10/05 08:55:52;;;;;;;16.35;15.65;;;;;;;-141.02;70.28;41582.56;5074206;28;20195;-65
2023/10/05 08:58:20;;;;;;;17.27;16.48;;;;;;;-141.02;68.36;41599.84;5073961;28;20222;-66
2023/10/05 09:00:48;;;;;;;16.75;16.05;;;;;;;-141.02;67.00;41676.59;5073401;28;20252;-66
2023/10/05 09:06:15;;;;;;;16.75;15.95;;;;;;;-141.02;64.94;41833.97;5074307;28;20635;-65
2023/10/05 09:08:51;;;;;;;16.70;15.90;;;;;;;-141.02;63.54;41895.38;5074139;28;20610;-65
2023/10/05 09:11:20;;;;;;;16.63;15.82;;;;;;;-141.02;64.15;41837.81;5073781;28;20671;-64
2023/10/05 09:13:47;;;;;;;16.60;15.80;;;;;;;-141.02;65.56;41868.53;5073556;28;20621;-65
2023/10/05 09:16:22;;;;;;;16.40;15.60;;;;;;;-141.02;66.13;41887.72;5073942;28;20194;-61
2023/10/05 09:18:51;;;;;;;16.50;15.70;;;;;;;-141.02;67.46;41847.41;5072524;28;20257;-67
2023/10/05 09:21:19;;;;;;;16.38;15.68;;;;;;;-141.02;67.08;41897.31;5069172;28;20282;-66
2023/10/05 09:23:47;;;;;;;16.35;15.65;;;;;;;-141.02;66.94;41860.84;5069243;28;20293;-65
2023/10/05 09:26:33;;;;;;;16.35;15.63;;;;;;;-141.02;68.47;41889.63;5072984;28;20200;-65
2023/10/05 09:29:22;;;;;;;15.85;15.15;;;;;;;-141.02;68.46;41878.13;5065769;28;20187;-65
2023/10/05 09:31:53;;;;;;;15.95;15.25;;;;;;;-141.02;66.62;41480.88;5053195;28;20281;-65
2023/10/05 09:34:37;;;;;;;16.33;15.63;;;;;;;-141.02;65.59;41929.94;5053508;28;20198;-66
2023/10/05 09:37:07;;;;;;;17.77;16.98;;;;;;;-141.02;65.26;41991.34;5052831;28;20318;-66
2023/10/05 09:39:42;;;;;;;16.80;16.02;;;;;;;-141.02;65.14;41985.59;5072318;28;20291;-65
2023/10/05 09:42:22;;;;;;;17.23;16.42;;;;;;;-141.02;64.92;41960.66;5072435;28;20182;-60
2023/10/05 09:44:57;;;;;;;16.60;15.90;;;;;;;-141.02;66.83;41960.66;5072281;28;20187;-58
2023/10/05 09:47:32;;;;;;;16.75;16.05;;;;;;;-141.02;64.80;42114.19;5072936;28;20182;-59
2023/10/05 09:50:00;;;;;;;16.50;15.80;;;;;;;-141.02;63.78;42037.41;5073205;28;20243;-66
2023/10/05 09:52:34;;;;;;;16.65;15.95;;;;;;;-141.02;63.46;42093.06;5071926;28;20199;-63
2023/10/05 09:55:03;;;;;;;17.00;16.20;;;;;;;-141.02;63.49;42116.09;5070490;28;20252;-59
2023/10/05 09:57:38;;;;;;;17.52;16.73;;;;;;;-141.02;63.40;42087.31;5072774;28;20195;-61
2023/10/05 10:00:11;;;;;;;17.30;16.50;;;;;;;-141.02;63.23;42093.06;5072635;28;20214;-62
2023/10/05 10:02:41;;;;;;;16.38;15.68;;;;;;;-141.02;63.52;42087.31;5072954;28;20248;-64
2023/10/05 10:05:26;;;;;;;16.73;16.02;;;;;;;-141.02;64.59;42114.19;5072431;28;20194;-62
2023/10/05 10:07:57;;;;;;;16.33;15.63;;;;;;;-141.02;65.10;42041.25;5072506;28;20194;-65
2023/10/05 10:10:25;;;;;;;16.05;15.35;;;;;;;-141.02;65.84;42025.91;5072852;28;20222;-62
2023/10/05 10:12:53;;;;;;;16.23;15.52;;;;;;;-141.02;67.23;42010.53;5072469;28;20198;-64
2023/10/05 10:15:28;;;;;;;16.10;15.40;;;;;;;-141.02;65.67;42029.75;5072773;28;20194;-61
2023/10/05 10:18:13;;;;;;;16.63;15.93;;;;;;;-141.02;64.48;42064.28;5072588;28;20264;-64
2023/10/05 10:20:45;;;;;;;16.88;16.17;;;;;;;-141.02;64.01;42052.78;5072590;28;20286;-67
2023/10/05 10:23:19;;;;;;;16.98;16.17;;;;;;;-141.02;63.75;42133.38;5071413;28;20194;-65
2023/10/05 10:25:50;;;;;;;16.77;16.08;;;;;;;-141.02;62.67;42077.72;5070187;28;20191;-64
2023/10/05 10:28:25;;;;;;;17.20;16.40;;;;;;;-141.02;64.01;42058.53;5071647;28;20191;-64
2023/10/05 10:31:16;;;;;;;16.20;15.50;;;;;;;-141.02;62.33;42121.88;5072536;28;20190;-63
2023/10/05 10:33:50;;;;;;;16.02;15.43;;;;;;;-141.02;63.46;42106.50;5072593;28;20579;-63
2023/10/05 10:36:21;;;;;;;17.13;16.42;;;;;;;-141.02;64.68;42083.47;5072203;28;20210;-64
2023/10/05 10:38:51;;;;;;;16.88;16.17;;;;;;;-141.02;63.04;42183.28;5070591;28;20242;-66
2023/10/05 10:41:22;;;;;;;16.73;16.13;;;;;;;-141.02;63.05;42141.06;5072121;28;20212;-61
2023/10/05 10:43:49;;;;;;;16.77;16.17;;;;;;;-141.02;62.88;42160.25;5072080;28;20198;-65
2023/10/05 10:46:29;;;;;;;17.40;16.60;;;;;;;-141.02;61.90;42123.78;5072353;28;20198;-63
2023/10/05 10:49:01;;;;;;;16.63;15.93;;;;;;;-141.02;61.71;42171.78;5072330;28;20191;-64
2023/10/05 10:51:31;;;;;;;17.45;16.65;;;;;;;-141.02;61.28;42164.09;5071985;28;20226;-63
2023/10/05 10:54:08;;;;;;;16.98;16.17;;;;;;;-141.02;61.99;42215.91;5071888;28;20191;-61
2023/10/05 10:56:41;;;;;;;16.90;16.10;;;;;;;-141.02;61.43;42300.38;5072273;28;20190;-59
2023/10/05 10:59:11;;;;;;;16.90;16.10;;;;;;;-141.02;61.29;42290.78;5071894;28;20218;-65
2023/10/05 11:01:42;;;;;;;17.15;16.35;;;;;;;-141.02;60.59;42281.19;5071891;28;20256;-60
2023/10/05 11:04:23;;;;;;;17.60;16.70;;;;;;;-141.02;59.72;42279.25;5071805;28;20203;-63
2023/10/05 11:06:56;;;;;;;17.23;16.42;;;;;;;-141.02;59.17;42229.34;5072059;28;20190;-61
2023/10/05 11:09:36;;;;;;;17.23;16.42;;;;;;;-141.02;59.65;42290.78;5072747;28;20198;-64
2023/10/05 11:12:12;;;;;;;17.35;16.55;;;;;;;-141.02;60.04;42279.25;5071719;28;20229;-62
2023/10/05 11:14:42;;;;;;;17.17;16.38;;;;;;;-141.02;59.89;42275.41;5072123;28;20190;-62
2023/10/05 11:17:35;;;;;;;16.95;16.15;;;;;;;-141.02;60.04;42267.75;5071904;28;20221;-61
2023/10/05 11:20:13;;;;;;;17.65;16.85;;;;;;;-141.02;60.73;42263.91;5071487;28;20762;-65
2023/10/05 11:22:43;;;;;;;18.80;18.00;;;;;;;-141.02;60.07;42260.06;5072130;28;20698;-66
2023/10/05 11:25:15;;;;;;;17.23;16.42;;;;;;;-141.02;59.66;42302.28;5075577;28;20554;-64
2023/10/05 11:27:54;;;;;;;16.88;16.08;;;;;;;-141.02;59.20;42319.56;5076042;28;20555;-64
2023/10/05 11:30:24;;;;;;;17.13;16.33;;;;;;;-141.02;58.80;42340.69;5075623;28;20243;-65
2023/10/05 11:32:56;;;;;;;17.15;16.35;;;;;;;-141.02;58.68;42352.19;5075865;28;20268;-64
2023/10/05 11:35:42;;;;;;;17.23;16.42;;;;;;;-141.02;58.08;42371.38;5075540;28;20217;-66
2023/10/05 11:38:14;;;;;;;17.45;16.65;;;;;;;-141.02;57.93;42444.34;5075014;28;20229;-65
2023/10/05 11:40:49;;;;;;;19.58;18.77;;;;;;;-141.02;56.91;42348.34;5075694;28;20377;-64
2023/10/05 11:43:20;;;;;;;19.20;18.40;;;;;;;-141.02;57.54;42352.19;5075783;28;20217;-63
2023/10/05 11:46:00;;;;;;;19.55;18.75;;;;;;;-141.02;57.78;42371.38;5075838;28;20695;-66
2023/10/05 11:48:35;;;;;;;17.25;16.45;;;;;;;-141.02;58.45;42323.41;5075530;28;20682;-64
2023/10/05 11:51:09;;;;;;;17.50;16.70;;;;;;;-141.02;59.66;42298.44;5075661;28;20194;-67
2023/10/05 11:53:36;;;;;;;17.92;17.02;;;;;;;-141.02;60.22;42279.25;5075599;28;20277;-59
2023/10/05 11:56:06;;;;;;;17.73;16.90;;;;;;;-141.02;59.50;42240.88;5075560;28;20194;-66
2023/10/05 11:58:36;;;;;;;17.80;16.90;;;;;;;-141.02;58.94;42202.47;5075152;28;20199;-66